Terminal Aerodrome Forecast
Issued by NWS

Home | Current Version | Previous Version | Text Only | Print | Product List | Glossary On
Versions: 1 2 3 4 5 6 7 8 9 10 11 12
000
FTUS44 KTSA 060500
TAFBVO
TAF
KBVO 060520Z 0606/0706 15005KT P6SM -SHRA FEW060 OVC100
      TEMPO 0606/0610 5SM -TSRA BR BKN030CB
     FM061000 16008KT 5SM -TSRA BR OVC025CB
     FM061900 16015G24KT P6SM VCTS OVC035CB
     FM070000 15015G22KT P6SM OVC050=

USA.gov is the U.S. government's official web portal to all federal, state and local government web resources and services.